Time;durP1;ratioP1;P1;durP2;ratioP2;P2;SDS_P1;SDS_P2;PMS_P1;PMS_P2;Temp;Humidity;BMP_temperature;BMP_pressure;BME280_temperature;BME280_humidity;BME280_pressure;Samples;Min_cycle;Max_cycle;Signal;HPM_P1;HPM_P2
2021/10/06 00:00:15;;;;;;;20.40;10.95;;;;;;;;;;354985;149;866773;-61
2021/10/06 00:01:16;;;;;;;17.76;10.90;;;;;;;;;;353790;149;860469;-62
2021/10/06 00:02:18;;;;;;;19.66;10.31;;;;;;;;;;358868;150;857985;-62
2021/10/06 00:23:59;;;;;;;17.51;9.60;;;;;;;8.33;61.25;101539.55;373582;142;868741;-62
2021/10/06 00:25:01;;;;;;;15.05;9.90;;;;;;;8.23;61.38;101534.97;363453;145;857546;-62
2021/10/06 00:26:04;;;;;;;19.47;9.59;;;;;;;8.25;61.43;101541.05;362845;144;857363;-61
2021/10/06 00:27:05;;;;;;;22.16;11.22;;;;;;;8.22;61.58;101539.24;363878;147;857410;-61
2021/10/06 00:28:07;;;;;;;19.39;11.11;;;;;;;8.21;61.50;101539.22;363570;144;857266;-61
2021/10/06 00:29:09;;;;;;;15.54;9.78;;;;;;;8.22;61.42;101539.24;366860;145;864688;-61
2021/10/06 00:30:11;;;;;;;18.17;9.49;;;;;;;8.22;61.45;101539.24;364308;145;864975;-61
2021/10/06 00:31:13;;;;;;;18.05;9.36;;;;;;;8.21;61.68;101540.08;362838;147;857337;-61
2021/10/06 00:32:15;;;;;;;16.84;10.38;;;;;;;8.23;61.62;101542.72;362392;144;864385;-60
2021/10/06 00:33:17;;;;;;;16.88;10.27;;;;;;;8.23;61.68;101535.83;362894;145;857345;-61
2021/10/06 00:34:20;;;;;;;19.80;10.04;;;;;;;8.23;61.60;101537.55;363943;148;857874;-61
2021/10/06 00:35:22;;;;;;;21.31;10.30;;;;;;;8.23;61.60;101537.55;361523;145;866141;-62
2021/10/06 00:36:24;;;;;;;15.26;10.19;;;;;;;8.24;61.54;101535.00;366071;145;857369;-62
2021/10/06 00:37:26;;;;;;;21.14;10.44;;;;;;;8.22;61.52;101536.66;363615;147;865085;-62
2021/10/06 00:38:28;;;;;;;18.69;10.06;;;;;;;8.21;61.68;101541.80;362046;145;864720;-63
2021/10/06 00:39:30;;;;;;;18.62;9.58;;;;;;;8.18;61.74;101535.72;361527;145;864659;-62
2021/10/06 00:40:33;;;;;;;19.13;9.73;;;;;;;8.18;61.74;101534.83;363260;148;865136;-63
2021/10/06 00:41:34;;;;;;;16.01;9.69;;;;;;;8.17;61.78;101536.55;363230;146;858328;-62
2021/10/06 00:42:37;;;;;;;17.17;9.19;;;;;;;8.18;61.83;101539.99;359694;147;865048;-62
2021/10/06 01:04:05;;;;;;;17.06;8.82;;;;;;;7.97;62.96;101541.14;371276;142;881631;-62
2021/10/06 01:05:07;;;;;;;16.79;8.79;;;;;;;7.86;63.15;101534.80;364175;147;859300;-62
2021/10/06 01:06:10;;;;;;;17.53;8.69;;;;;;;7.86;63.05;101537.38;362626;147;858878;-61
2021/10/06 01:07:12;;;;;;;14.61;8.48;;;;;;;7.89;63.10;101542.63;364951;146;857252;-62
2021/10/06 01:08:13;;;;;;;18.37;8.97;;;;;;;7.88;63.18;101538.30;362845;146;857198;-62
2021/10/06 01:09:15;;;;;;;23.21;9.41;;;;;;;7.89;63.07;101538.33;360906;147;864956;-62
2021/10/06 01:10:18;;;;;;;15.83;9.00;;;;;;;7.90;63.10;101541.80;363561;146;864875;-62
2021/10/06 01:11:19;;;;;;;18.32;9.03;;;;;;;7.89;63.26;101533.17;361157;146;857638;-62
2021/10/06 01:12:21;;;;;;;20.06;9.99;;;;;;;7.92;63.18;101537.56;359287;148;865367;-62
2021/10/06 01:13:23;;;;;;;14.06;8.81;;;;;;;7.86;63.18;101539.96;361287;147;865937;-62
2021/10/06 01:14:25;;;;;;;19.01;9.66;;;;;;;7.86;63.37;101545.12;363695;147;866724;-62
2021/10/06 01:15:26;;;;;;;22.63;8.91;;;;;;;7.83;63.42;101539.88;361998;147;865032;-62
2021/10/06 01:16:29;;;;;;;16.15;9.19;;;;;;;7.81;63.43;101538.95;365361;147;864835;-62
2021/10/06 01:17:31;;;;;;;14.27;8.58;;;;;;;7.79;63.47;101530.30;363020;146;857708;-62
2021/10/06 01:18:32;;;;;;;19.66;9.76;;;;;;;7.80;63.57;101534.63;363560;146;859107;-62
2021/10/06 01:19:34;;;;;;;15.41;8.99;;;;;;;7.79;63.70;101538.03;360397;147;866430;-62
2021/10/06 01:20:37;;;;;;;18.45;9.73;;;;;;;7.80;63.57;101542.36;361694;147;859031;-62
2021/10/06 01:21:38;;;;;;;16.19;9.11;;;;;;;7.78;63.61;101542.30;364239;146;856413;-62
2021/10/06 01:22:40;;;;;;;20.36;9.78;;;;;;;7.79;63.61;101538.89;361887;147;857481;-63
2021/10/06 01:23:43;;;;;;;15.13;8.64;;;;;;;7.76;63.73;101541.38;360661;147;865722;-62
2021/10/06 01:24:44;;;;;;;16.35;8.58;;;;;;;7.77;63.71;101539.70;364810;146;865824;-62
2021/10/06 01:25:46;;;;;;;15.12;9.56;;;;;;;7.76;63.72;101536.23;364331;147;857144;-62
2021/10/06 01:26:50;;;;;;;14.62;9.81;;;;;;;7.76;63.79;101536.23;359145;150;864977;-62
2021/10/06 01:27:51;;;;;;;15.77;8.35;;;;;;;7.78;63.85;101539.72;362745;147;858658;-62
2021/10/06 01:28:54;;;;;;;15.26;8.58;;;;;;;7.79;63.92;101543.19;363917;146;856410;-63
2021/10/06 01:29:56;;;;;;;19.53;9.98;;;;;;;7.82;63.81;101538.13;362907;147;863984;-62
2021/10/06 01:30:57;;;;;;;16.25;8.75;;;;;;;7.82;63.81;101538.13;365889;147;856403;-62
2021/10/06 01:31:59;;;;;;;11.52;7.35;;;;;;;7.83;63.73;101539.88;362246;147;856907;-62
2021/10/06 01:33:01;;;;;;;18.05;9.63;;;;;;;7.83;63.93;101537.30;361891;147;856336;-62
2021/10/06 01:34:03;;;;;;;14.81;8.02;;;;;;;7.80;64.14;101534.63;364196;147;856748;-62
2021/10/06 01:35:06;;;;;;;16.20;8.35;;;;;;;7.81;63.90;101539.81;364776;147;864438;-63
2021/10/06 01:36:09;;;;;;;16.29;9.44;;;;;;;7.82;63.96;101540.70;362200;146;856509;-62
2021/10/06 01:37:10;;;;;;;16.03;7.82;;;;;;;7.79;63.80;101533.73;363212;148;856045;-62
2021/10/06 01:38:14;;;;;;;16.75;9.27;;;;;;;7.81;63.73;101538.95;362871;146;856089;-63
2021/10/06 01:39:16;;;;;;;15.30;8.90;;;;;;;7.79;63.81;101541.47;360349;147;856144;-62
2021/10/06 01:40:22;;;;;;;15.16;8.77;;;;;;;7.80;63.83;101539.78;364891;147;863785;-62
2021/10/06 01:41:24;;;;;;;16.12;8.46;;;;;;;7.80;63.98;101544.94;363757;147;863775;-63
2021/10/06 01:44:10;;;;;;;14.87;8.42;;;;;;;;;;408364;130;861215;-62
2021/10/06 01:45:15;;;;;;;13.27;8.01;;;;;;;;;;394391;134;857680;-62
2021/10/06 01:46:19;;;;;;;16.69;8.71;;;;;;;;;;394454;133;858884;-62
2021/10/06 01:47:21;;;;;;;15.38;8.81;;;;;;;;;;394148;136;857146;-62
2021/10/06 01:48:22;;;;;;;19.66;9.01;;;;;;;;;;394395;134;865839;-62
2021/10/06 01:49:24;;;;;;;15.36;8.44;;;;;;;;;;398031;133;857188;-62
2021/10/06 01:50:27;;;;;;;13.28;8.44;;;;;;;;;;394282;135;864942;-62
2021/10/06 01:51:29;;;;;;;17.52;9.44;;;;;;;;;;392191;134;857693;-62
2021/10/06 01:52:30;;;;;;;15.29;9.26;;;;;;;;;;392893;133;865910;-62
2021/10/06 01:53:35;;;;;;;17.59;9.19;;;;;;;;;;394891;134;864870;-63
2021/10/06 01:54:37;;;;;;;13.66;8.27;;;;;;;;;;393556;136;857466;-63
2021/10/06 01:55:38;;;;;;;14.37;8.17;;;;;;;;;;393079;134;858740;-62
2021/10/06 01:56:40;;;;;;;16.59;8.95;;;;;;;;;;393543;133;864917;-62
2021/10/06 01:57:42;;;;;;;16.14;8.59;;;;;;;;;;394359;135;857317;-62
2021/10/06 01:58:47;;;;;;;14.12;8.44;;;;;;;;;;393589;135;864872;-62
2021/10/06 01:59:49;;;;;;;16.57;8.35;;;;;;;;;;392748;133;864856;-62
2021/10/06 02:00:50;;;;;;;15.95;9.01;;;;;;;;;;392730;135;859316;-62
2021/10/06 02:01:52;;;;;;;16.35;8.76;;;;;;;;;;394659;133;857246;-62
2021/10/06 02:02:54;;;;;;;15.66;8.84;;;;;;;;;;388661;137;865063;-63
2021/10/06 02:03:55;;;;;;;15.81;8.94;;;;;;;;;;386683;136;865071;-63
2021/10/06 02:04:57;;;;;;;16.13;9.04;;;;;;;;;;385252;138;865457;-63
2021/10/06 02:05:58;;;;;;;13.98;9.27;;;;;;;;;;385717;137;865622;-62
2021/10/06 02:07:01;;;;;;;12.10;6.66;;;;;;;;;;388879;136;865476;-62
2021/10/06 02:08:03;;;;;;;12.49;8.00;;;;;;;;;;388965;138;859167;-62
2021/10/06 02:09:05;;;;;;;14.87;8.64;;;;;;;;;;386595;137;863371;-62
2021/10/06 02:10:08;;;;;;;12.99;8.44;;;;;;;;;;388930;136;859202;-62
2021/10/06 02:11:11;;;;;;;15.83;7.84;;;;;;;;;;385267;135;858000;-62
2021/10/06 02:12:12;;;;;;;14.41;8.45;;;;;;;;;;386486;139;857920;-63
2021/10/06 02:13:14;;;;;;;15.89;8.48;;;;;;;;;;386635;137;859326;-63
2021/10/06 02:14:16;;;;;;;16.89;9.08;;;;;;;;;;388246;136;857386;-62
2021/10/06 02:15:17;;;;;;;12.21;7.91;;;;;;;;;;388059;138;858317;-62
2021/10/06 02:16:19;;;;;;;15.64;9.13;;;;;;;;;;386039;136;864995;-62
2021/10/06 02:17:21;;;;;;;15.06;8.95;;;;;;;;;;388103;136;857183;-62
2021/10/06 02:18:23;;;;;;;14.68;8.47;;;;;;;;;;391496;135;865344;-63
2021/10/06 02:19:24;;;;;;;17.98;8.42;;;;;;;;;;380468;139;859044;-63
2021/10/06 02:20:27;;;;;;;14.74;8.10;;;;;;;;;;388443;135;866380;-62
2021/10/06 02:21:29;;;;;;;19.14;8.82;;;;;;;;;;387928;136;858877;-62
2021/10/06 02:22:30;;;;;;;14.92;8.79;;;;;;;;;;384572;138;864917;-63
2021/10/06 02:23:32;;;;;;;17.37;8.30;;;;;;;;;;387482;137;865014;-63
2021/10/06 02:24:33;;;;;;;13.00;8.14;;;;;;;;;;389240;136;858890;-63
2021/10/06 02:25:35;;;;;;;17.07;8.58;;;;;;;;;;389266;138;857251;-62
2021/10/06 02:26:38;;;;;;;14.06;7.92;;;;;;;;;;388594;136;866797;-63
2021/10/06 02:27:40;;;;;;;13.29;8.08;;;;;;;;;;387788;136;858866;-63
2021/10/06 02:28:41;;;;;;;16.61;8.46;;;;;;;;;;387400;138;859398;-62
2021/10/06 02:29:43;;;;;;;12.40;7.94;;;;;;;;;;389331;138;861883;-62
2021/10/06 02:30:46;;;;;;;13.36;8.84;;;;;;;;;;390181;135;865152;-63
2021/10/06 02:31:48;;;;;;;15.09;8.22;;;;;;;;;;390147;136;857289;-62
2021/10/06 02:32:49;;;;;;;12.49;8.25;;;;;;;;;;386271;137;857725;-62
2021/10/06 02:33:51;;;;;;;13.70;8.25;;;;;;;;;;386638;137;865923;-62
2021/10/06 02:34:52;;;;;;;17.00;8.89;;;;;;;;;;388584;136;865123;-62
2021/10/06 02:35:54;;;;;;;15.31;8.41;;;;;;;;;;385710;138;867070;-63
2021/10/06 02:36:56;;;;;;;16.99;8.96;;;;;;;;;;389127;138;865144;-63
2021/10/06 02:37:57;;;;;;;16.03;8.48;;;;;;;;;;387224;136;865020;-62
2021/10/06 02:38:59;;;;;;;17.70;8.46;;;;;;;;;;388928;136;865440;-62
2021/10/06 02:40:01;;;;;;;17.55;8.70;;;;;;;;;;388815;138;865808;-62
2021/10/06 02:41:03;;;;;;;15.41;8.30;;;;;;;;;;389992;137;858643;-62
2021/10/06 02:42:04;;;;;;;14.96;8.03;;;;;;;;;;388596;136;866800;-62
2021/10/06 02:43:06;;;;;;;13.29;7.76;;;;;;;;;;389270;135;857188;-62
2021/10/06 02:44:07;;;;;;;15.87;7.93;;;;;;;;;;394907;135;859593;-61
2021/10/06 02:45:09;;;;;;;14.49;8.36;;;;;;;;;;389280;136;865206;-62
2021/10/06 02:46:11;;;;;;;13.64;8.54;;;;;;;;;;389852;137;866114;-62
2021/10/06 02:47:13;;;;;;;17.06;8.74;;;;;;;;;;386484;138;858563;-62
2021/10/06 02:48:14;;;;;;;13.77;8.44;;;;;;;;;;388241;137;857748;-62
2021/10/06 02:49:16;;;;;;;13.51;7.96;;;;;;;;;;389064;136;859747;-62
2021/10/06 02:50:19;;;;;;;21.21;8.85;;;;;;;;;;389704;135;866709;-62
2021/10/06 02:51:21;;;;;;;12.93;8.16;;;;;;;;;;387336;137;859566;-62
2021/10/06 02:52:23;;;;;;;16.44;8.61;;;;;;;;;;387754;136;860242;-63
2021/10/06 02:53:24;;;;;;;15.62;8.05;;;;;;;;;;389310;137;857697;-62
2021/10/06 02:54:26;;;;;;;17.74;8.59;;;;;;;;;;389563;136;857378;-63
2021/10/06 02:55:28;;;;;;;13.25;8.09;;;;;;;;;;389513;136;857736;-63
2021/10/06 02:56:30;;;;;;;14.73;8.61;;;;;;;;;;388909;136;859024;-62
2021/10/06 02:57:33;;;;;;;16.42;8.12;;;;;;;;;;379237;139;857281;-62
2021/10/06 02:58:34;;;;;;;17.69;8.22;;;;;;;;;;388586;136;865741;-63
2021/10/06 02:59:36;;;;;;;12.45;7.94;;;;;;;;;;389183;136;859954;-62
2021/10/06 03:00:39;;;;;;;14.27;8.53;;;;;;;;;;388263;137;859264;-62
2021/10/06 03:01:41;;;;;;;14.31;8.68;;;;;;;;;;389221;137;857029;-61
2021/10/06 03:02:43;;;;;;;12.58;7.77;;;;;;;;;;381279;138;859373;-61
2021/10/06 03:03:44;;;;;;;20.57;9.29;;;;;;;;;;379216;140;860060;-61
2021/10/06 03:04:46;;;;;;;14.94;8.67;;;;;;;;;;385639;139;864883;-62
2021/10/06 03:05:48;;;;;;;15.47;8.42;;;;;;;;;;388187;136;857612;-61
2021/10/06 03:06:50;;;;;;;12.93;8.43;;;;;;;;;;387894;136;865017;-62
2021/10/06 03:07:51;;;;;;;15.51;9.57;;;;;;;;;;383941;138;857689;-61
2021/10/06 03:08:54;;;;;;;21.71;10.56;;;;;;;;;;388690;137;857289;-63
2021/10/06 03:09:56;;;;;;;20.66;11.94;;;;;;;;;;386429;136;865348;-62
2021/10/06 03:10:58;;;;;;;19.39;13.13;;;;;;;;;;388264;136;857320;-62
2021/10/06 03:12:00;;;;;;;15.39;11.16;;;;;;;;;;383308;138;866659;-62
2021/10/06 03:13:01;;;;;;;14.82;9.99;;;;;;;;;;387635;136;857305;-62
2021/10/06 03:14:03;;;;;;;25.42;9.71;;;;;;;;;;388455;137;865074;-62
2021/10/06 03:15:05;;;;;;;17.58;11.97;;;;;;;;;;387655;138;858996;-61
2021/10/06 03:16:07;;;;;;;20.45;11.44;;;;;;;;;;388357;137;857186;-62
2021/10/06 03:17:09;;;;;;;34.51;18.86;;;;;;;;;;388725;136;857231;-61
2021/10/06 03:18:11;;;;;;;21.47;16.43;;;;;;;;;;389047;137;860074;-62
2021/10/06 03:19:12;;;;;;;28.99;21.16;;;;;;;;;;389877;137;864925;-62
2021/10/06 03:20:16;;;;;;;32.42;19.99;;;;;;;;;;387362;136;864745;-62
2021/10/06 03:23:44;;;;;;;25.42;15.99;;;;;;;7.20;66.90;101613.53;370193;142;880021;-60
2021/10/06 03:24:46;;;;;;;26.09;18.87;;;;;;;7.11;66.79;101616.70;361761;147;857085;-59
2021/10/06 03:25:48;;;;;;;23.58;16.37;;;;;;;7.14;66.66;101624.52;364597;147;857311;-61
2021/10/06 03:26:50;;;;;;;23.57;14.67;;;;;;;7.11;66.69;101621.84;361433;146;867001;-61
2021/10/06 03:27:52;;;;;;;24.79;17.11;;;;;;;7.11;66.84;101621.84;360632;147;857472;-60
2021/10/06 03:28:54;;;;;;;24.07;17.27;;;;;;;7.08;66.95;101621.75;360559;147;866283;-61
2021/10/06 03:29:55;;;;;;;21.61;16.30;;;;;;;7.06;67.19;101623.39;355894;150;857411;-60
2021/10/06 03:30:58;;;;;;;23.57;17.92;;;;;;;7.05;67.12;101619.92;361903;146;866039;-61
2021/10/06 03:32:01;;;;;;;19.22;11.95;;;;;;;7.04;67.03;101628.48;361733;147;857314;-61
2021/10/06 03:33:02;;;;;;;17.83;11.69;;;;;;;7.03;67.11;101623.29;360571;147;857252;-61
2021/10/06 03:34:04;;;;;;;16.38;10.97;;;;;;;7.01;67.23;101618.08;362136;146;857269;-61
2021/10/06 03:35:07;;;;;;;21.76;14.06;;;;;;;6.99;67.41;101617.14;363227;147;857338;-61
2021/10/06 03:36:10;;;;;;;19.99;14.25;;;;;;;7.00;67.54;101618.89;362512;147;864728;-60
2021/10/06 03:37:11;;;;;;;20.56;17.10;;;;;;;;;;361674;147;859531;-62
2021/10/06 03:38:13;;;;;;;18.37;11.89;;;;;;;;;;361805;146;857225;-61
2021/10/06 03:39:14;;;;;;;14.84;11.66;;;;;;;;;;365123;147;865791;-60
2021/10/06 03:40:16;;;;;;;20.79;12.19;;;;;;;;;;362371;147;868510;-60
2021/10/06 03:41:18;;;;;;;17.84;11.14;;;;;;;;;;362009;146;857362;-64
2021/10/06 03:42:20;;;;;;;22.04;10.76;;;;;;;;;;362841;147;865841;-61
2021/10/06 03:43:21;;;;;;;15.95;9.95;;;;;;;;;;361972;148;865544;-63
2021/10/06 03:44:23;;;;;;;18.46;9.21;;;;;;;;;;362709;147;865921;-62
2021/10/06 03:45:25;;;;;;;13.65;7.99;;;;;;;;;;352587;150;858113;-59
2021/10/06 03:46:27;;;;;;;14.55;8.34;;;;;;;;;;364140;147;864797;-60
2021/10/06 03:47:28;;;;;;;15.01;8.99;;;;;;;;;;363738;147;858141;-61
2021/10/06 03:48:30;;;;;;;13.93;8.04;;;;;;;;;;363772;147;857375;-60
2021/10/06 03:49:32;;;;;;;13.38;8.14;;;;;;;;;;364126;147;859813;-60
2021/10/06 03:50:34;;;;;;;13.81;8.81;;;;;;;;;;365681;147;860874;-61
2021/10/06 03:51:35;;;;;;;11.22;7.61;;;;;;;;;;363690;146;858001;-59
2021/10/06 03:52:37;;;;;;;11.36;8.24;;;;;;;;;;363295;146;864932;-61
2021/10/06 03:53:39;;;;;;;16.76;8.30;;;;;;;;;;363728;148;856405;-58
2021/10/06 03:54:40;;;;;;;15.59;8.33;;;;;;;;;;364379;146;865810;-59
2021/10/06 03:55:42;;;;;;;14.38;7.54;;;;;;;;;;363977;146;859600;-60
2021/10/06 03:56:45;;;;;;;13.75;8.27;;;;;;;;;;362914;147;865708;-61
2021/10/06 03:57:47;;;;;;;15.75;7.51;;;;;;;;;;362769;147;857264;-60
2021/10/06 03:58:48;;;;;;;12.56;7.48;;;;;;;;;;361441;146;865985;-60
2021/10/06 03:59:50;;;;;;;13.82;8.55;;;;;;;;;;362344;147;866103;-59
2021/10/06 04:00:52;;;;;;;13.22;7.39;;;;;;;;;;364103;147;865888;-59
2021/10/06 04:01:54;;;;;;;14.24;6.63;;;;;;;;;;362316;147;858567;-60
2021/10/06 04:02:56;;;;;;;14.84;7.31;;;;;;;;;;361686;146;857676;-61
2021/10/06 04:03:58;;;;;;;16.94;8.05;;;;;;;;;;361662;147;857725;-60
2021/10/06 04:04:59;;;;;;;14.19;7.97;;;;;;;;;;363643;147;859347;-61
2021/10/06 04:06:01;;;;;;;16.36;8.51;;;;;;;;;;362614;146;865598;-60
2021/10/06 04:07:03;;;;;;;13.25;7.61;;;;;;;;;;362434;147;865973;-61
2021/10/06 04:08:05;;;;;;;12.99;7.29;;;;;;;;;;361721;147;857236;-60
2021/10/06 04:09:06;;;;;;;14.46;7.23;;;;;;;;;;362207;146;864899;-61
2021/10/06 04:10:08;;;;;;;12.58;7.40;;;;;;;;;;349850;150;864891;-63
2021/10/06 04:11:10;;;;;;;11.27;6.75;;;;;;;;;;354245;150;857594;-63
2021/10/06 04:12:12;;;;;;;17.53;7.86;;;;;;;;;;363211;147;864975;-64
2021/10/06 04:13:13;;;;;;;14.77;7.83;;;;;;;;;;362922;146;859025;-64
2021/10/06 04:14:15;;;;;;;12.09;7.06;;;;;;;;;;362476;147;864821;-65
2021/10/06 04:15:18;;;;;;;12.79;7.71;;;;;;;;;;363742;147;861721;-60
2021/10/06 04:16:21;;;;;;;15.40;7.56;;;;;;;;;;363403;147;865021;-60
2021/10/06 04:17:23;;;;;;;12.88;7.77;;;;;;;;;;363669;147;859957;-59
2021/10/06 04:18:24;;;;;;;16.16;7.53;;;;;;;;;;364931;147;865404;-61
2021/10/06 04:19:26;;;;;;;13.97;7.71;;;;;;;;;;362089;147;864846;-60
2021/10/06 04:20:29;;;;;;;12.85;7.77;;;;;;;;;;361414;146;866689;-62
2021/10/06 04:21:30;;;;;;;13.04;7.42;;;;;;;;;;361305;147;857393;-61
2021/10/06 04:22:32;;;;;;;14.31;7.86;;;;;;;;;;363194;147;857483;-65
2021/10/06 04:23:34;;;;;;;14.49;8.11;;;;;;;;;;361859;147;864883;-64
2021/10/06 04:24:35;;;;;;;11.29;8.08;;;;;;;;;;363817;147;859021;-63
2021/10/06 04:25:37;;;;;;;17.11;7.05;;;;;;;;;;364212;147;858951;-64
2021/10/06 04:26:40;;;;;;;15.01;7.97;;;;;;;;;;362503;146;863985;-64
2021/10/06 04:27:41;;;;;;;13.77;7.64;;;;;;;;;;364996;147;859000;-64
2021/10/06 04:28:43;;;;;;;16.67;8.31;;;;;;;;;;363007;147;859492;-63
2021/10/06 04:29:45;;;;;;;12.64;7.18;;;;;;;;;;361856;147;864919;-61
2021/10/06 04:30:47;;;;;;;11.01;7.30;;;;;;;;;;362151;146;859004;-64
2021/10/06 04:31:48;;;;;;;15.68;7.78;;;;;;;;;;363028;147;857265;-63
2021/10/06 04:32:50;;;;;;;14.13;8.16;;;;;;;;;;362555;146;857337;-63
2021/10/06 04:33:51;;;;;;;13.89;8.31;;;;;;;;;;362926;146;865079;-66
2021/10/06 04:34:53;;;;;;;13.84;7.50;;;;;;;;;;361500;147;857805;-63
2021/10/06 04:35:55;;;;;;;15.54;7.74;;;;;;;;;;363979;147;866282;-67
2021/10/06 04:36:56;;;;;;;14.36;8.04;;;;;;;;;;363253;147;866887;-64
2021/10/06 04:37:58;;;;;;;12.16;7.65;;;;;;;;;;361408;146;866199;-71
2021/10/06 04:38:59;;;;;;;15.28;8.23;;;;;;;;;;360619;147;861973;-62
2021/10/06 04:40:02;;;;;;;19.60;8.39;;;;;;;;;;364521;147;865573;-65
2021/10/06 04:41:03;;;;;;;11.93;7.26;;;;;;;;;;362628;147;856373;-64
2021/10/06 04:42:05;;;;;;;13.34;7.67;;;;;;;;;;361247;147;859303;-63
2021/10/06 04:43:10;;;;;;;13.41;8.82;;;;;;;;;;363176;147;864933;-64
2021/10/06 04:44:12;;;;;;;12.04;7.77;;;;;;;;;;362835;147;866829;-64
2021/10/06 04:45:13;;;;;;;14.49;8.51;;;;;;;;;;363023;146;857732;-64
2021/10/06 04:46:18;;;;;;;12.56;7.93;;;;;;;;;;364244;147;865197;-65
2021/10/06 04:47:20;;;;;;;15.08;8.12;;;;;;;;;;361548;147;859129;-65
2021/10/06 04:48:22;;;;;;;12.89;8.10;;;;;;;;;;360682;146;857190;-65
2021/10/06 04:49:23;;;;;;;15.17;8.49;;;;;;;;;;361658;147;866229;-64
2021/10/06 04:50:29;;;;;;;15.90;7.88;;;;;;;;;;364017;147;860781;-65
2021/10/06 04:51:29;;;;;;;16.26;8.13;;;;;;;;;;362691;146;857141;-64
2021/10/06 04:52:31;;;;;;;14.94;8.00;;;;;;;;;;364287;147;865539;-64
2021/10/06 04:53:32;;;;;;;18.84;8.41;;;;;;;;;;362104;147;862534;-60
2021/10/06 04:54:34;;;;;;;13.46;8.57;;;;;;;;;;363561;147;865087;-63
2021/10/06 04:55:36;;;;;;;18.76;8.69;;;;;;;;;;362876;146;864968;-64
2021/10/06 04:56:38;;;;;;;14.97;7.64;;;;;;;;;;362957;147;864899;-65
2021/10/06 04:57:39;;;;;;;14.49;8.17;;;;;;;;;;362779;147;857747;-63
2021/10/06 04:58:41;;;;;;;13.22;7.60;;;;;;;;;;358965;147;857237;-65
2021/10/06 04:59:43;;;;;;;12.49;7.04;;;;;;;;;;360572;147;866565;-66
2021/10/06 05:00:45;;;;;;;15.15;8.01;;;;;;;;;;364638;147;857269;-66
2021/10/06 05:01:46;;;;;;;16.27;8.47;;;;;;;;;;362331;147;857817;-64
2021/10/06 05:02:48;;;;;;;14.71;7.33;;;;;;;;;;361660;146;866706;-62
2021/10/06 05:03:50;;;;;;;15.99;8.14;;;;;;;;;;360986;147;865035;-63
2021/10/06 05:04:51;;;;;;;14.78;8.64;;;;;;;;;;360985;147;857786;-63
2021/10/06 05:05:53;;;;;;;19.76;8.32;;;;;;;;;;361324;147;866682;-62
2021/10/06 05:06:55;;;;;;;21.37;9.59;;;;;;;;;;360343;147;857384;-62
2021/10/06 05:07:57;;;;;;;16.13;8.11;;;;;;;;;;362243;147;856178;-64
2021/10/06 05:08:58;;;;;;;18.39;7.96;;;;;;;;;;363038;146;859148;-65
2021/10/06 05:10:00;;;;;;;18.35;7.68;;;;;;;;;;361717;147;857744;-64
2021/10/06 05:23:06;;;;;;;15.02;7.25;;;;;;;7.99;68.36;101673.61;371876;142;883238;-62
2021/10/06 05:24:08;;;;;;;16.52;7.98;;;;;;;7.93;68.30;101678.58;364463;147;857245;-63
2021/10/06 05:25:10;;;;;;;16.72;8.37;;;;;;;7.95;68.29;101676.03;361495;147;857088;-62
2021/10/06 05:26:12;;;;;;;13.46;7.41;;;;;;;7.90;68.67;101681.06;363623;146;858929;-62
2021/10/06 05:27:14;;;;;;;17.50;6.81;;;;;;;7.96;68.51;101680.39;364791;147;857151;-62
2021/10/06 05:28:16;;;;;;;12.85;7.35;;;;;;;7.94;68.40;101677.75;362603;147;864884;-62
2021/10/06 05:29:18;;;;;;;12.77;7.77;;;;;;;7.99;68.25;101676.19;364911;147;857215;-62
2021/10/06 05:30:20;;;;;;;14.13;8.35;;;;;;;8.06;68.16;101685.01;363523;146;857240;-62
2021/10/06 05:31:21;;;;;;;16.99;8.08;;;;;;;;;;361479;147;857263;-61
2021/10/06 05:32:23;;;;;;;16.86;7.51;;;;;;;;;;364283;147;857264;-63
2021/10/06 05:33:25;;;;;;;14.84;7.70;;;;;;;;;;363482;146;857331;-63
2021/10/06 05:34:26;;;;;;;14.57;7.54;;;;;;;;;;363289;147;866465;-63
2021/10/06 05:35:28;;;;;;;15.13;7.45;;;;;;;;;;365373;147;857210;-63
2021/10/06 05:36:32;;;;;;;14.01;8.26;;;;;;;;;;364466;147;866791;-62
2021/10/06 05:37:33;;;;;;;16.59;6.85;;;;;;;;;;365469;147;857193;-63
2021/10/06 05:38:35;;;;;;;14.88;7.91;;;;;;;;;;366104;147;860698;-63
2021/10/06 05:39:36;;;;;;;15.51;7.84;;;;;;;;;;365855;146;863309;-63
2021/10/06 05:40:38;;;;;;;16.36;7.17;;;;;;;;;;366107;146;857091;-63
2021/10/06 05:41:40;;;;;;;11.57;7.04;;;;;;;;;;365713;147;857660;-62
2021/10/06 05:42:42;;;;;;;15.68;8.04;;;;;;;;;;362684;147;859400;-62
2021/10/06 05:43:43;;;;;;;12.47;6.51;;;;;;;;;;362968;146;866444;-62
2021/10/06 05:44:46;;;;;;;12.04;7.76;;;;;;;;;;364498;147;864805;-62
2021/10/06 05:45:48;;;;;;;14.55;7.76;;;;;;;;;;362760;147;858991;-62
2021/10/06 05:46:50;;;;;;;10.78;6.49;;;;;;;;;;362952;145;865009;-62
2021/10/06 06:03:50;;;;;;;22.97;7.16;;;;;;;9.35;65.67;101681.70;372851;142;867776;-62
2021/10/06 06:04:51;;;;;;;15.75;7.44;;;;;;;9.28;65.67;101684.97;361835;145;859825;-62
2021/10/06 06:05:53;;;;;;;11.96;6.97;;;;;;;9.32;65.31;101684.22;363209;147;857208;-62
2021/10/06 06:06:55;;;;;;;13.93;7.65;;;;;;;9.37;65.34;101686.90;362914;148;865071;-63
2021/10/06 06:07:57;;;;;;;11.18;7.24;;;;;;;9.42;65.33;101679.27;361404;145;857740;-62
2021/10/06 06:08:59;;;;;;;13.89;7.97;;;;;;;9.48;65.30;101689.77;363681;145;856707;-62
2021/10/06 06:10:00;;;;;;;14.30;7.37;;;;;;;9.54;65.18;101683.85;362571;145;856241;-62
2021/10/06 06:11:03;;;;;;;16.76;6.89;;;;;;;9.60;64.95;101677.13;363512;146;864342;-62
2021/10/06 06:12:09;;;;;;;15.69;8.22;;;;;;;9.64;64.77;101683.27;363899;145;863941;-62
2021/10/06 06:13:08;;;;;;;17.88;7.63;;;;;;;9.67;64.50;101683.34;362198;147;856356;-62
2021/10/06 06:14:10;;;;;;;11.08;5.41;;;;;;;9.70;64.53;101678.23;362080;146;856360;-62
2021/10/06 06:15:12;;;;;;;19.24;7.79;;;;;;;9.72;64.46;101681.73;362578;145;863899;-62
2021/10/06 06:16:14;;;;;;;16.89;7.42;;;;;;;9.74;64.61;101686.92;363320;146;863907;-62
2021/10/06 06:17:16;;;;;;;13.15;5.91;;;;;;;9.75;64.23;101674.05;359507;150;856397;-62
2021/10/06 06:18:18;;;;;;;21.07;7.44;;;;;;;9.74;64.45;101680.06;361946;146;864276;-62
2021/10/06 06:19:20;;;;;;;18.91;7.83;;;;;;;;;;362488;145;864240;-62
2021/10/06 06:20:25;;;;;;;17.35;7.95;;;;;;;;;;363553;147;856120;-62
2021/10/06 06:21:26;;;;;;;13.93;7.51;;;;;;;;;;360324;146;856846;-63
2021/10/06 06:22:28;;;;;;;9.65;5.51;;;;;;;;;;361747;145;863706;-64
2021/10/06 06:23:31;;;;;;;16.58;7.71;;;;;;;;;;362654;146;864070;-63
2021/10/06 06:24:33;;;;;;;16.95;7.73;;;;;;;;;;361581;145;863762;-62
2021/10/06 06:25:34;;;;;;;8.94;6.24;;;;;;;;;;363251;145;856109;-63
2021/10/06 06:26:36;;;;;;;11.18;5.92;;;;;;;;;;363427;145;863869;-63
2021/10/06 06:27:38;;;;;;;15.78;8.37;;;;;;;;;;361744;148;856178;-63
2021/10/06 06:28:39;;;;;;;15.85;5.79;;;;;;;;;;364359;144;857132;-63
2021/10/06 06:29:41;;;;;;;12.96;7.56;;;;;;;;;;363067;145;856590;-63
2021/10/06 06:30:43;;;;;;;17.69;8.94;;;;;;;;;;365409;146;863781;-62
2021/10/06 06:31:44;;;;;;;14.54;8.59;;;;;;;;;;361741;149;863699;-62
2021/10/06 06:32:46;;;;;;;15.77;9.02;;;;;;;;;;361725;145;863890;-62
2021/10/06 06:33:47;;;;;;;13.42;6.76;;;;;;;;;;361814;148;856037;-62
2021/10/06 06:34:49;;;;;;;20.49;10.75;;;;;;;;;;361811;149;863722;-62
2021/10/06 06:35:51;;;;;;;16.91;10.46;;;;;;;;;;361608;145;864367;-62
2021/10/06 06:36:54;;;;;;;11.68;7.65;;;;;;;;;;361700;145;856223;-62
2021/10/06 06:37:55;;;;;;;16.51;9.04;;;;;;;;;;361884;146;856430;-62
2021/10/06 06:38:57;;;;;;;16.17;8.64;;;;;;;;;;362295;144;856382;-63
2021/10/06 06:39:59;;;;;;;13.64;6.99;;;;;;;;;;363336;145;856215;-62
2021/10/06 06:41:00;;;;;;;15.21;8.04;;;;;;;;;;361815;149;856334;-62
2021/10/06 06:42:02;;;;;;;6.95;4.72;;;;;;;;;;361846;145;856862;-62
2021/10/06 06:43:03;;;;;;;17.01;7.14;;;;;;;;;;362095;145;856552;-62
2021/10/06 06:44:05;;;;;;;9.84;5.77;;;;;;;;;;361708;146;864237;-62
2021/10/06 06:45:07;;;;;;;11.82;6.92;;;;;;;;;;363975;146;856032;-62
2021/10/06 06:46:09;;;;;;;15.99;7.95;;;;;;;;;;361536;148;857821;-62
2021/10/06 06:47:11;;;;;;;14.62;7.86;;;;;;;;;;362814;145;863775;-62